Avery, TX

6:40 PM CDT on July 31, 2014 (GMT -0500)
Clarksville (KLBR) Elev 440 ft | 33.59 °N, 95.06 °W | Change Station

Current weather conditions updated 5 minutes ago

Overcast
Overcast
70 °F
Feels Like 70 °F
N
9
Wind Variable Wind from NNE

Tomorrow is forecast to be Much Warmer than today. Showers ending by midday.

Today
High -- | Low -- °F
--% Chance of Precip.
Yesterday
High -- | Low -- °F
Precip. -- in
6:30 AM 8:19 PM
Waxing Crescent, 21% visible
Pressure 30.00 in
Visibility 1.2 miles
Clouds Overcast 500 ft
Dew Point 69 °F
Humidity 97%
Rainfall 3.95 in
Snow Depth Not available.
UV 0 out of 12
Pollen 4.40 out of 12
Air Quality Not available.
Flu Activity Not available.
METAR KLBR 312335Z AUTO 02008KT 1 1/4SM OVC005 21/21 A3000 RMK AO1 P0002 T02100205

More Conditions Fewer Conditions

Pressure 30.00 in
Visibility 1.2 miles
Clouds Overcast 500 ft
Dew Point 69 °F
Humidity 97%
Rainfall 3.95 in
Snow Depth Not available.
UV 0 out of 12
Pollen 4.40 out of 12
Air Quality Not available.
Flu Activity Not available.
METAR KLBR 312335Z AUTO 02008KT 1 1/4SM OVC005 21/21 A3000 RMK AO1 P0002 T02100205

More Conditions Fewer Conditions

Nowcast | as of 4:36 PM CDT on July 31, 2014

Widespread rain showers...with a few embedded thunderstorms...will continue across the four state region through the afternoon. The heavier downpours will move across mainly East Texas with additional development expected. Movement of this convective activity was to the southeast near 20 mph. Rainfall rates will range from a trace to inch across the area.

×

10-Day Weather Forecast

Almanac

Astronomy

Jul. 31, 2014 Rise Set
Actual Time 6:30 AM CDT 8:19 PM CDT
Civil Twilight 6:03 AM CDT 8:46 PM CDT
Nautical Twilight 5:30 AM CDT 9:19 PM CDT
Astronomical Twilight 4:55 AM CDT 9:54 PM CDT
Moon 10:43 AM CDT 10:50 PM CDT
Length of Visible Light 14h 43m
Length of Day
13h 48m
Tomorrow will be 1m 32s shorter.
Waxing Crescent, 21% of the Moon is Illuminated
Today
Waxing Crescent
Aug 3
First Quarter
Aug 10
Full
Aug 17
Last Quarter
Aug 25
New

Today's Extremes

State Highs State Lows

Community

WunderPhotos

Upload Photos

1,739,460 photos uploaded!

Nearby

Snow Depth

Station Depth Elevation
No new snow has been reported.

Earthquake Activity

City Distance Mag. Time & Date
No recent earthquake activity has been reported nearby.
Minimum magnitude displayed is 2.5.

Coastal Water Temperatures

Place Temperature
No Stations Reporting

Nearby Weather Stations

Station Location Temp. Dew Point Humidity Wind Precip. Elev Updated Type
MesoWest NAPLES , Naples, TX 71 °F - - North  at  - 0.00 in / hr 275 ft 5:20 PM CDT MADIS
Glass Club Lake, Omaha, TX 69.9 °F 69 °F 96% ENE  at  4.0 mph 0.00 in / hr 377 ft 6:36 PM CDT Normal
MesoWest OMAHA , Cookville, TX 62 °F - - North  at  - 0.00 in / hr 412 ft 5:40 PM CDT MADIS
Fuller Farms, Haworth, OK 67.1 °F 66 °F 96% NE  at  0.0 mph 0.11 in / hr 433 ft 6:40 PM CDT Rapid Fire

Show More Stations Show Fewer Stations